Impacts METAR Board
IDs:

KTCL - Tuscaloosa Rgnl, AL, US

Updated at: 1800 UTC 23 Jan 2019
Potential Impact None Slight Moderate High
Time 23/06Z 23/07Z 23/08Z 23/09Z 23/10Z 23/11Z 23/12Z 23/13Z 23/14Z 23/15Z 23/16Z 23/17Z 23/18Z
Temp 55 57 58 56 57 57 57 58 61 62 62
Dewpt 46 47 49 51 52 52 54 55 56 57 58
Altim 30.12 30.08 30.05 30.02 30.00 30.00 29.99 29.95 29.92 29.89 29.83
VIS 10 10 9 10 9 10 2 10 10 10 5
CIG 49 50 41 48 30 29 10 19 15 16 12
CoverOVCOVCOVCOVCOVCOVCOVCOVCBKNOVCOVC
FltCatVFRVFRVFRVFRMVFRMVFRIFRMVFRMVFRMVFRMVFR
WX-----RA-RA---RA-RA BR-------RA BR
WDir0130130150140160180130150170160
WSpd 3 6 11 6 10 8 7 8 13 13 10
WGst -- -- -- -- 17 14 -- -- 19 19 22
Raw hourly METARs


KTCL 230753Z AUTO VRB03KT 10SM OVC049 13/08 A3012 RMK AO2 RAB28E38 SLP199 P0000 T01280078
KTCL 230853Z AUTO 13006KT 10SM OVC050 14/08 A3008 RMK AO2 PRESFR SLP185 60000 T01390083 58033
KTCL 230953Z AUTO 13011KT 9SM -RA BKN041 OVC055 14/09 A3005 RMK AO2 RAB53 SLP176 P0001 T01440094
KTCL 231053Z AUTO 15006KT 10SM -RA FEW034 OVC048 13/11 A3002 RMK AO2 RAE15B35 SLP164 P0001 T01330106
KTCL 231204Z AUTO 14010G17KT 9SM FEW020 BKN030 OVC039 14/11 A3000 RMK AO2 RAE1156 P0000 T01390111
KTCL 231253Z AUTO 16008G14KT 120V190 10SM -RA BKN029 OVC040 14/11 A3000 RMK AO2 RAE1156B06 SLP157 P0000 T01390111
KTCL 231349Z 18007KT 2SM -RA BR BKN010 OVC015 14/12 A2999 RMK AO2 SLP154 P0009 T01390122
KTCL 231453Z 13008KT 10SM FEW012 BKN019 OVC034 14/13 A2995 RMK AO2 RAE37 SLP141 P0003 60012 T01440128 58017
KTCL 231553Z 15013G19KT 10SM BKN015 BKN021 16/13 A2992 RMK AO2 SLP129 T01610133
KTCL 231653Z 17013G19KT 10SM OVC016 17/14 A2989 RMK AO2 PK WND 16026/1614 RAB07E24 SLP118 P0000 T01670139
KTCL 231753Z 16010G22KT 5SM -RA BR BKN012 OVC036 17/14 A2983 RMK AO2 PK WND 15028/1708 RAB1657 SLP101 P0014 60026 T01670144 10172 20139 58040



Page loaded:  18:53 UTC  |   10:53 AM Pacific  |   11:53 AM Mountain  |   12:53 PM Central  |   01:53 PM Eastern

 

ADVISORIES

FORECASTS

FORECASTS

OBSERVATIONS

USER TOOLS

ABOUT US